sensor_id;sensor_type;location;lat;lon;timestamp;P1;durP1;ratioP1;P2;durP2;ratioP2
54679;SDS011;40578;53.178;5.846;2023-06-04T00:00:05;7.67;;;3.70;;
54679;SDS011;40578;53.178;5.846;2023-06-04T00:04:57;7.07;;;3.78;;
54679;SDS011;40578;53.178;5.846;2023-06-04T00:07:22;7.00;;;3.83;;
54679;SDS011;40578;53.178;5.846;2023-06-04T00:09:48;7.00;;;3.57;;
54679;SDS011;40578;53.178;5.846;2023-06-04T00:12:14;9.87;;;3.90;;
54679;SDS011;40578;53.178;5.846;2023-06-04T00:14:40;7.32;;;3.50;;
54679;SDS011;40578;53.178;5.846;2023-06-04T00:17:07;8.68;;;4.03;;
54679;SDS011;40578;53.178;5.846;2023-06-04T00:19:33;7.32;;;3.60;;
54679;SDS011;40578;53.178;5.846;2023-06-04T00:22:00;6.95;;;3.42;;
54679;SDS011;40578;53.178;5.846;2023-06-04T00:24:25;8.67;;;3.50;;
54679;SDS011;40578;53.178;5.846;2023-06-04T00:26:52;10.83;;;4.23;;
54679;SDS011;40578;53.178;5.846;2023-06-04T00:29:18;10.23;;;4.30;;
54679;SDS011;40578;53.178;5.846;2023-06-04T00:31:43;6.90;;;3.70;;
54679;SDS011;40578;53.178;5.846;2023-06-04T00:34:10;8.10;;;4.03;;
54679;SDS011;40578;53.178;5.846;2023-06-04T00:36:36;7.72;;;3.90;;
54679;SDS011;40578;53.178;5.846;2023-06-04T00:39:01;9.10;;;4.10;;
54679;SDS011;40578;53.178;5.846;2023-06-04T00:41:27;11.48;;;4.03;;
54679;SDS011;40578;53.178;5.846;2023-06-04T00:43:53;10.03;;;3.97;;
54679;SDS011;40578;53.178;5.846;2023-06-04T00:46:24;13.50;;;4.40;;
54679;SDS011;40578;53.178;5.846;2023-06-04T00:48:51;8.23;;;3.60;;
54679;SDS011;40578;53.178;5.846;2023-06-04T00:51:18;10.40;;;3.97;;
54679;SDS011;40578;53.178;5.846;2023-06-04T00:53:45;11.02;;;4.03;;
54679;SDS011;40578;53.178;5.846;2023-06-04T00:56:11;10.93;;;4.87;;
54679;SDS011;40578;53.178;5.846;2023-06-04T00:58:38;10.05;;;3.75;;
54679;SDS011;40578;53.178;5.846;2023-06-04T01:01:04;7.75;;;3.78;;
54679;SDS011;40578;53.178;5.846;2023-06-04T01:03:33;10.05;;;3.95;;
54679;SDS011;40578;53.178;5.846;2023-06-04T01:08:50;10.38;;;4.50;;
54679;SDS011;40578;53.178;5.846;2023-06-04T01:11:29;12.00;;;4.70;;
54679;SDS011;40578;53.178;5.846;2023-06-04T01:13:56;9.98;;;4.30;;
54679;SDS011;40578;53.178;5.846;2023-06-04T01:16:22;9.70;;;4.97;;
54679;SDS011;40578;53.178;5.846;2023-06-04T01:18:48;7.25;;;4.13;;
54679;SDS011;40578;53.178;5.846;2023-06-04T01:21:16;11.15;;;4.97;;
54679;SDS011;40578;53.178;5.846;2023-06-04T01:23:50;9.10;;;3.90;;
54679;SDS011;40578;53.178;5.846;2023-06-04T01:26:24;12.05;;;3.90;;
54679;SDS011;40578;53.178;5.846;2023-06-04T01:28:54;10.77;;;4.47;;
54679;SDS011;40578;53.178;5.846;2023-06-04T01:31:21;9.18;;;4.18;;
54679;SDS011;40578;53.178;5.846;2023-06-04T01:33:51;7.60;;;4.20;;
54679;SDS011;40578;53.178;5.846;2023-06-04T01:36:18;10.07;;;3.78;;
54679;SDS011;40578;53.178;5.846;2023-06-04T01:38:44;7.70;;;3.70;;
54679;SDS011;40578;53.178;5.846;2023-06-04T01:41:10;8.77;;;3.53;;
54679;SDS011;40578;53.178;5.846;2023-06-04T01:43:36;7.80;;;3.90;;
54679;SDS011;40578;53.178;5.846;2023-06-04T01:46:02;8.27;;;3.60;;
54679;SDS011;40578;53.178;5.846;2023-06-04T01:48:28;8.40;;;3.65;;
54679;SDS011;40578;53.178;5.846;2023-06-04T01:50:54;9.70;;;3.85;;
54679;SDS011;40578;53.178;5.846;2023-06-04T01:53:21;7.65;;;3.50;;
54679;SDS011;40578;53.178;5.846;2023-06-04T01:55:47;6.47;;;3.53;;
54679;SDS011;40578;53.178;5.846;2023-06-04T01:58:14;10.85;;;4.18;;
54679;SDS011;40578;53.178;5.846;2023-06-04T02:00:50;10.55;;;4.20;;
54679;SDS011;40578;53.178;5.846;2023-06-04T02:03:18;8.73;;;4.03;;
54679;SDS011;40578;53.178;5.846;2023-06-04T02:05:44;8.02;;;4.72;;
54679;SDS011;40578;53.178;5.846;2023-06-04T02:08:11;9.40;;;4.68;;
54679;SDS011;40578;53.178;5.846;2023-06-04T02:10:45;9.25;;;4.45;;
54679;SDS011;40578;53.178;5.846;2023-06-04T02:13:12;11.75;;;5.18;;
54679;SDS011;40578;53.178;5.846;2023-06-04T02:15:38;10.07;;;4.72;;
54679;SDS011;40578;53.178;5.846;2023-06-04T02:18:24;10.93;;;5.30;;
54679;SDS011;40578;53.178;5.846;2023-06-04T02:20:50;10.02;;;4.88;;
54679;SDS011;40578;53.178;5.846;2023-06-04T02:23:17;10.40;;;5.07;;
54679;SDS011;40578;53.178;5.846;2023-06-04T02:25:43;6.60;;;4.35;;
54679;SDS011;40578;53.178;5.846;2023-06-04T02:30:35;11.98;;;6.10;;
54679;SDS011;40578;53.178;5.846;2023-06-04T02:33:01;12.93;;;6.47;;
54679;SDS011;40578;53.178;5.846;2023-06-04T02:35:30;12.63;;;6.83;;
54679;SDS011;40578;53.178;5.846;2023-06-04T02:37:56;16.02;;;6.72;;
54679;SDS011;40578;53.178;5.846;2023-06-04T02:40:25;10.80;;;6.47;;
54679;SDS011;40578;53.178;5.846;2023-06-04T02:42:52;15.03;;;7.70;;
54679;SDS011;40578;53.178;5.846;2023-06-04T02:45:21;16.05;;;8.52;;
54679;SDS011;40578;53.178;5.846;2023-06-04T02:47:49;15.23;;;8.50;;
54679;SDS011;40578;53.178;5.846;2023-06-04T02:50:15;15.23;;;9.50;;
54679;SDS011;40578;53.178;5.846;2023-06-04T02:52:41;15.90;;;9.00;;
54679;SDS011;40578;53.178;5.846;2023-06-04T02:55:07;20.60;;;9.52;;
54679;SDS011;40578;53.178;5.846;2023-06-04T02:57:34;14.73;;;8.80;;
54679;SDS011;40578;53.178;5.846;2023-06-04T03:00:00;16.92;;;9.80;;
54679;SDS011;40578;53.178;5.846;2023-06-04T03:02:26;16.13;;;9.60;;
54679;SDS011;40578;53.178;5.846;2023-06-04T03:04:52;18.65;;;10.52;;
54679;SDS011;40578;53.178;5.846;2023-06-04T03:07:20;14.18;;;9.75;;
54679;SDS011;40578;53.178;5.846;2023-06-04T03:09:48;15.00;;;9.70;;
54679;SDS011;40578;53.178;5.846;2023-06-04T03:12:14;18.83;;;9.95;;
54679;SDS011;40578;53.178;5.846;2023-06-04T03:14:40;18.00;;;9.20;;
54679;SDS011;40578;53.178;5.846;2023-06-04T03:17:06;17.57;;;10.60;;
54679;SDS011;40578;53.178;5.846;2023-06-04T03:19:38;17.02;;;9.63;;
54679;SDS011;40578;53.178;5.846;2023-06-04T03:22:06;19.88;;;9.73;;
54679;SDS011;40578;53.178;5.846;2023-06-04T03:24:36;17.27;;;9.20;;
54679;SDS011;40578;53.178;5.846;2023-06-04T03:27:04;15.40;;;9.43;;
54679;SDS011;40578;53.178;5.846;2023-06-04T03:29:31;16.17;;;9.00;;
54679;SDS011;40578;53.178;5.846;2023-06-04T03:31:57;16.85;;;9.30;;
54679;SDS011;40578;53.178;5.846;2023-06-04T03:34:23;13.85;;;8.52;;
54679;SDS011;40578;53.178;5.846;2023-06-04T03:36:52;16.23;;;8.73;;
54679;SDS011;40578;53.178;5.846;2023-06-04T03:39:19;12.75;;;8.30;;
54679;SDS011;40578;53.178;5.846;2023-06-04T03:41:45;15.75;;;7.82;;
54679;SDS011;40578;53.178;5.846;2023-06-04T03:44:17;19.20;;;8.20;;
54679;SDS011;40578;53.178;5.846;2023-06-04T03:46:43;13.77;;;7.60;;
54679;SDS011;40578;53.178;5.846;2023-06-04T03:49:10;14.45;;;7.65;;
54679;SDS011;40578;53.178;5.846;2023-06-04T03:51:37;11.95;;;8.10;;
54679;SDS011;40578;53.178;5.846;2023-06-04T03:54:03;17.95;;;7.30;;
54679;SDS011;40578;53.178;5.846;2023-06-04T03:56:29;13.90;;;7.27;;
54679;SDS011;40578;53.178;5.846;2023-06-04T03:58:55;12.25;;;7.75;;
54679;SDS011;40578;53.178;5.846;2023-06-04T04:01:21;13.15;;;7.32;;
54679;SDS011;40578;53.178;5.846;2023-06-04T04:03:51;13.75;;;7.03;;
54679;SDS011;40578;53.178;5.846;2023-06-04T04:06:17;13.80;;;7.63;;
54679;SDS011;40578;53.178;5.846;2023-06-04T04:08:43;13.07;;;7.20;;
54679;SDS011;40578;53.178;5.846;2023-06-04T04:11:12;14.40;;;7.50;;
54679;SDS011;40578;53.178;5.846;2023-06-04T04:13:38;12.52;;;7.78;;
54679;SDS011;40578;53.178;5.846;2023-06-04T04:16:04;12.67;;;7.30;;
54679;SDS011;40578;53.178;5.846;2023-06-04T04:18:32;11.57;;;7.33;;
54679;SDS011;40578;53.178;5.846;2023-06-04T04:21:00;14.13;;;7.43;;
54679;SDS011;40578;53.178;5.846;2023-06-04T04:23:26;10.57;;;7.68;;
54679;SDS011;40578;53.178;5.846;2023-06-04T04:25:52;15.93;;;8.00;;
54679;SDS011;40578;53.178;5.846;2023-06-04T04:28:18;15.15;;;7.78;;
54679;SDS011;40578;53.178;5.846;2023-06-04T04:30:45;14.32;;;8.25;;
54679;SDS011;40578;53.178;5.846;2023-06-04T04:33:12;14.57;;;7.65;;
54679;SDS011;40578;53.178;5.846;2023-06-04T04:35:40;11.13;;;7.50;;
54679;SDS011;40578;53.178;5.846;2023-06-04T04:38:07;13.98;;;8.20;;
54679;SDS011;40578;53.178;5.846;2023-06-04T04:40:34;14.05;;;8.00;;
54679;SDS011;40578;53.178;5.846;2023-06-04T04:43:00;16.23;;;7.83;;
54679;SDS011;40578;53.178;5.846;2023-06-04T04:45:26;13.87;;;8.60;;
54679;SDS011;40578;53.178;5.846;2023-06-04T04:47:51;14.07;;;8.07;;
54679;SDS011;40578;53.178;5.846;2023-06-04T04:50:18;16.10;;;7.95;;
54679;SDS011;40578;53.178;5.846;2023-06-04T04:52:44;14.57;;;7.83;;
54679;SDS011;40578;53.178;5.846;2023-06-04T04:55:09;14.67;;;7.23;;
54679;SDS011;40578;53.178;5.846;2023-06-04T04:57:37;14.48;;;7.30;;
54679;SDS011;40578;53.178;5.846;2023-06-04T05:02:37;12.30;;;7.05;;
54679;SDS011;40578;53.178;5.846;2023-06-04T05:05:03;10.13;;;6.18;;
54679;SDS011;40578;53.178;5.846;2023-06-04T05:07:29;11.32;;;6.80;;
54679;SDS011;40578;53.178;5.846;2023-06-04T05:09:55;10.77;;;5.83;;
54679;SDS011;40578;53.178;5.846;2023-06-04T05:12:20;11.57;;;5.40;;
54679;SDS011;40578;53.178;5.846;2023-06-04T05:14:46;12.67;;;5.60;;
54679;SDS011;40578;53.178;5.846;2023-06-04T05:17:12;9.17;;;5.00;;
54679;SDS011;40578;53.178;5.846;2023-06-04T05:19:38;9.32;;;5.53;;
54679;SDS011;40578;53.178;5.846;2023-06-04T05:22:04;7.70;;;4.67;;
54679;SDS011;40578;53.178;5.846;2023-06-04T05:24:33;9.00;;;4.55;;
54679;SDS011;40578;53.178;5.846;2023-06-04T05:26:59;8.97;;;4.93;;
54679;SDS011;40578;53.178;5.846;2023-06-04T05:29:25;9.00;;;5.00;;
54679;SDS011;40578;53.178;5.846;2023-06-04T05:31:50;11.40;;;6.03;;
54679;SDS011;40578;53.178;5.846;2023-06-04T05:34:16;9.17;;;5.20;;
54679;SDS011;40578;53.178;5.846;2023-06-04T05:39:12;10.50;;;5.72;;
54679;SDS011;40578;53.178;5.846;2023-06-04T05:41:37;9.32;;;5.68;;
54679;SDS011;40578;53.178;5.846;2023-06-04T05:44:03;10.20;;;4.93;;
54679;SDS011;40578;53.178;5.846;2023-06-04T05:46:29;11.25;;;5.25;;
54679;SDS011;40578;53.178;5.846;2023-06-04T05:48:54;11.60;;;5.50;;
54679;SDS011;40578;53.178;5.846;2023-06-04T05:51:20;10.93;;;5.47;;
54679;SDS011;40578;53.178;5.846;2023-06-04T05:53:46;9.52;;;5.50;;
54679;SDS011;40578;53.178;5.846;2023-06-04T05:56:12;12.43;;;5.90;;
54679;SDS011;40578;53.178;5.846;2023-06-04T05:58:38;8.40;;;6.07;;
54679;SDS011;40578;53.178;5.846;2023-06-04T06:01:04;9.20;;;5.93;;
54679;SDS011;40578;53.178;5.846;2023-06-04T06:03:30;8.83;;;6.07;;
54679;SDS011;40578;53.178;5.846;2023-06-04T06:05:56;8.50;;;5.73;;
54679;SDS011;40578;53.178;5.846;2023-06-04T06:08:24;11.00;;;5.43;;
54679;SDS011;40578;53.178;5.846;2023-06-04T06:10:50;10.43;;;5.50;;
54679;SDS011;40578;53.178;5.846;2023-06-04T06:13:16;8.93;;;4.77;;
54679;SDS011;40578;53.178;5.846;2023-06-04T06:15:41;9.70;;;5.37;;
54679;SDS011;40578;53.178;5.846;2023-06-04T06:18:07;8.57;;;5.13;;
54679;SDS011;40578;53.178;5.846;2023-06-04T06:20:34;11.13;;;4.78;;
54679;SDS011;40578;53.178;5.846;2023-06-04T06:23:06;11.60;;;5.30;;
54679;SDS011;40578;53.178;5.846;2023-06-04T06:25:32;9.63;;;4.85;;
54679;SDS011;40578;53.178;5.846;2023-06-04T06:27:57;7.17;;;4.40;;
54679;SDS011;40578;53.178;5.846;2023-06-04T06:30:23;9.02;;;4.32;;
54679;SDS011;40578;53.178;5.846;2023-06-04T06:32:49;9.45;;;4.65;;
54679;SDS011;40578;53.178;5.846;2023-06-04T06:35:15;7.40;;;4.80;;
54679;SDS011;40578;53.178;5.846;2023-06-04T06:40:09;6.47;;;3.78;;
54679;SDS011;40578;53.178;5.846;2023-06-04T06:45:00;10.65;;;4.30;;
54679;SDS011;40578;53.178;5.846;2023-06-04T06:47:27;9.87;;;4.17;;
54679;SDS011;40578;53.178;5.846;2023-06-04T06:49:53;8.80;;;3.80;;
54679;SDS011;40578;53.178;5.846;2023-06-04T06:52:20;7.70;;;3.53;;
54679;SDS011;40578;53.178;5.846;2023-06-04T06:54:45;8.32;;;3.33;;
54679;SDS011;40578;53.178;5.846;2023-06-04T06:57:13;8.77;;;2.83;;
54679;SDS011;40578;53.178;5.846;2023-06-04T06:59:40;6.65;;;2.30;;
54679;SDS011;40578;53.178;5.846;2023-06-04T07:02:07;5.43;;;2.33;;
54679;SDS011;40578;53.178;5.846;2023-06-04T07:06:58;7.85;;;2.40;;
54679;SDS011;40578;53.178;5.846;2023-06-04T07:09:23;7.37;;;3.13;;
54679;SDS011;40578;53.178;5.846;2023-06-04T07:11:49;5.73;;;2.20;;
54679;SDS011;40578;53.178;5.846;2023-06-04T07:14:15;8.53;;;2.37;;
54679;SDS011;40578;53.178;5.846;2023-06-04T07:16:40;4.83;;;2.30;;
54679;SDS011;40578;53.178;5.846;2023-06-04T07:19:06;7.13;;;2.70;;
54679;SDS011;40578;53.178;5.846;2023-06-04T07:21:32;8.63;;;2.70;;
54679;SDS011;40578;53.178;5.846;2023-06-04T07:23:57;4.73;;;2.23;;
54679;SDS011;40578;53.178;5.846;2023-06-04T07:26:23;9.87;;;2.37;;
54679;SDS011;40578;53.178;5.846;2023-06-04T07:28:50;6.40;;;2.20;;
54679;SDS011;40578;53.178;5.846;2023-06-04T07:31:16;4.80;;;1.87;;
54679;SDS011;40578;53.178;5.846;2023-06-04T07:33:42;6.28;;;2.30;;
54679;SDS011;40578;53.178;5.846;2023-06-04T07:36:17;5.60;;;2.50;;
54679;SDS011;40578;53.178;5.846;2023-06-04T07:38:43;7.05;;;2.33;;
54679;SDS011;40578;53.178;5.846;2023-06-04T07:41:09;4.35;;;1.98;;
54679;SDS011;40578;53.178;5.846;2023-06-04T07:43:35;6.47;;;2.58;;
54679;SDS011;40578;53.178;5.846;2023-06-04T07:46:01;6.57;;;2.50;;
54679;SDS011;40578;53.178;5.846;2023-06-04T07:48:27;6.10;;;2.30;;
54679;SDS011;40578;53.178;5.846;2023-06-04T07:50:59;8.75;;;2.80;;
54679;SDS011;40578;53.178;5.846;2023-06-04T07:53:26;9.93;;;3.00;;
54679;SDS011;40578;53.178;5.846;2023-06-04T07:55:52;8.65;;;2.72;;
54679;SDS011;40578;53.178;5.846;2023-06-04T07:58:18;7.60;;;2.47;;
54679;SDS011;40578;53.178;5.846;2023-06-04T08:00:44;6.47;;;2.33;;
54679;SDS011;40578;53.178;5.846;2023-06-04T08:03:10;6.80;;;2.70;;
54679;SDS011;40578;53.178;5.846;2023-06-04T08:05:36;7.40;;;2.35;;
54679;SDS011;40578;53.178;5.846;2023-06-04T08:08:02;6.47;;;2.50;;
54679;SDS011;40578;53.178;5.846;2023-06-04T08:10:29;6.45;;;2.50;;
54679;SDS011;40578;53.178;5.846;2023-06-04T08:12:55;4.65;;;2.20;;
54679;SDS011;40578;53.178;5.846;2023-06-04T08:15:21;7.63;;;2.53;;
54679;SDS011;40578;53.178;5.846;2023-06-04T08:17:47;6.00;;;2.33;;
54679;SDS011;40578;53.178;5.846;2023-06-04T08:20:12;4.60;;;1.97;;
54679;SDS011;40578;53.178;5.846;2023-06-04T08:22:38;6.83;;;2.17;;
54679;SDS011;40578;53.178;5.846;2023-06-04T08:25:04;5.03;;;2.20;;
54679;SDS011;40578;53.178;5.846;2023-06-04T08:27:30;6.63;;;2.38;;
54679;SDS011;40578;53.178;5.846;2023-06-04T08:29:56;5.97;;;2.13;;
54679;SDS011;40578;53.178;5.846;2023-06-04T08:32:22;4.10;;;2.00;;
54679;SDS011;40578;53.178;5.846;2023-06-04T08:34:48;3.67;;;2.03;;
54679;SDS011;40578;53.178;5.846;2023-06-04T08:37:14;5.77;;;2.17;;
54679;SDS011;40578;53.178;5.846;2023-06-04T08:39:40;4.97;;;2.08;;
54679;SDS011;40578;53.178;5.846;2023-06-04T08:42:06;4.65;;;2.10;;
54679;SDS011;40578;53.178;5.846;2023-06-04T08:44:36;4.45;;;2.03;;
54679;SDS011;40578;53.178;5.846;2023-06-04T08:47:04;6.18;;;1.92;;
54679;SDS011;40578;53.178;5.846;2023-06-04T08:49:34;6.47;;;2.10;;
54679;SDS011;40578;53.178;5.846;2023-06-04T08:52:04;5.45;;;2.10;;
54679;SDS011;40578;53.178;5.846;2023-06-04T08:54:31;7.03;;;2.28;;
54679;SDS011;40578;53.178;5.846;2023-06-04T08:56:57;6.65;;;2.30;;
54679;SDS011;40578;53.178;5.846;2023-06-04T08:59:23;5.17;;;2.10;;
54679;SDS011;40578;53.178;5.846;2023-06-04T09:01:53;6.03;;;2.45;;
54679;SDS011;40578;53.178;5.846;2023-06-04T09:04:20;5.22;;;2.08;;
54679;SDS011;40578;53.178;5.846;2023-06-04T09:06:46;6.27;;;2.17;;
54679;SDS011;40578;53.178;5.846;2023-06-04T09:09:12;5.10;;;2.35;;
54679;SDS011;40578;53.178;5.846;2023-06-04T09:11:55;4.63;;;2.00;;
54679;SDS011;40578;53.178;5.846;2023-06-04T09:14:24;4.60;;;1.88;;
54679;SDS011;40578;53.178;5.846;2023-06-04T09:16:51;4.50;;;2.05;;
54679;SDS011;40578;53.178;5.846;2023-06-04T09:19:19;6.35;;;2.10;;
54679;SDS011;40578;53.178;5.846;2023-06-04T09:21:46;3.75;;;2.10;;
54679;SDS011;40578;53.178;5.846;2023-06-04T09:24:18;5.97;;;2.15;;
54679;SDS011;40578;53.178;5.846;2023-06-04T09:26:44;4.22;;;2.15;;
54679;SDS011;40578;53.178;5.846;2023-06-04T09:29:10;7.77;;;1.83;;
54679;SDS011;40578;53.178;5.846;2023-06-04T09:31:36;7.17;;;2.40;;
54679;SDS011;40578;53.178;5.846;2023-06-04T09:34:03;5.05;;;2.10;;
54679;SDS011;40578;53.178;5.846;2023-06-04T09:36:35;5.13;;;2.28;;
54679;SDS011;40578;53.178;5.846;2023-06-04T09:39:15;5.88;;;2.10;;
54679;SDS011;40578;53.178;5.846;2023-06-04T09:41:41;5.25;;;1.92;;
54679;SDS011;40578;53.178;5.846;2023-06-04T09:44:07;4.37;;;2.37;;
54679;SDS011;40578;53.178;5.846;2023-06-04T09:46:38;4.60;;;2.38;;
54679;SDS011;40578;53.178;5.846;2023-06-04T09:49:04;3.50;;;2.10;;
54679;SDS011;40578;53.178;5.846;2023-06-04T09:51:30;4.20;;;2.00;;
54679;SDS011;40578;53.178;5.846;2023-06-04T09:53:58;4.28;;;2.13;;
54679;SDS011;40578;53.178;5.846;2023-06-04T09:56:25;4.05;;;1.90;;
54679;SDS011;40578;53.178;5.846;2023-06-04T10:01:27;3.28;;;1.80;;
54679;SDS011;40578;53.178;5.846;2023-06-04T10:03:54;6.20;;;1.90;;
54679;SDS011;40578;53.178;5.846;2023-06-04T10:06:23;3.20;;;1.70;;
54679;SDS011;40578;53.178;5.846;2023-06-04T10:08:51;5.50;;;2.30;;
54679;SDS011;40578;53.178;5.846;2023-06-04T10:11:25;5.15;;;2.30;;
54679;SDS011;40578;53.178;5.846;2023-06-04T10:16:21;4.27;;;2.13;;
54679;SDS011;40578;53.178;5.846;2023-06-04T10:18:52;4.47;;;2.05;;
54679;SDS011;40578;53.178;5.846;2023-06-04T10:21:19;3.92;;;1.63;;
54679;SDS011;40578;53.178;5.846;2023-06-04T10:23:46;3.95;;;1.70;;
54679;SDS011;40578;53.178;5.846;2023-06-04T10:26:14;4.80;;;1.93;;
54679;SDS011;40578;53.178;5.846;2023-06-04T10:28:41;3.67;;;2.20;;
54679;SDS011;40578;53.178;5.846;2023-06-04T10:31:10;3.92;;;1.77;;
54679;SDS011;40578;53.178;5.846;2023-06-04T10:33:37;3.75;;;1.63;;
54679;SDS011;40578;53.178;5.846;2023-06-04T10:36:20;3.72;;;1.90;;
54679;SDS011;40578;53.178;5.846;2023-06-04T10:38:48;5.55;;;2.03;;
54679;SDS011;40578;53.178;5.846;2023-06-04T10:41:14;4.68;;;2.15;;
54679;SDS011;40578;53.178;5.846;2023-06-04T10:43:42;3.35;;;1.88;;
54679;SDS011;40578;53.178;5.846;2023-06-04T10:46:11;3.72;;;1.90;;
54679;SDS011;40578;53.178;5.846;2023-06-04T10:48:44;3.55;;;1.83;;
54679;SDS011;40578;53.178;5.846;2023-06-04T10:51:13;4.45;;;2.03;;
54679;SDS011;40578;53.178;5.846;2023-06-04T10:53:38;4.13;;;1.98;;
54679;SDS011;40578;53.178;5.846;2023-06-04T10:56:04;4.93;;;1.90;;
54679;SDS011;40578;53.178;5.846;2023-06-04T10:58:33;4.37;;;1.90;;
54679;SDS011;40578;53.178;5.846;2023-06-04T11:01:00;4.28;;;1.95;;
54679;SDS011;40578;53.178;5.846;2023-06-04T11:03:34;3.00;;;1.92;;
54679;SDS011;40578;53.178;5.846;2023-06-04T11:06:13;4.00;;;2.20;;
54679;SDS011;40578;53.178;5.846;2023-06-04T11:08:40;4.25;;;2.10;;
54679;SDS011;40578;53.178;5.846;2023-06-04T11:11:15;4.75;;;2.13;;
54679;SDS011;40578;53.178;5.846;2023-06-04T11:13:42;4.43;;;2.22;;
54679;SDS011;40578;53.178;5.846;2023-06-04T11:16:14;4.97;;;2.15;;
54679;SDS011;40578;53.178;5.846;2023-06-04T11:18:41;3.65;;;1.88;;
54679;SDS011;40578;53.178;5.846;2023-06-04T11:21:07;3.90;;;2.17;;
54679;SDS011;40578;53.178;5.846;2023-06-04T11:23:33;4.03;;;2.07;;
54679;SDS011;40578;53.178;5.846;2023-06-04T11:25:59;4.70;;;2.28;;
54679;SDS011;40578;53.178;5.846;2023-06-04T11:28:25;4.40;;;2.20;;
54679;SDS011;40578;53.178;5.846;2023-06-04T11:31:00;5.97;;;2.63;;
54679;SDS011;40578;53.178;5.846;2023-06-04T11:33:43;3.58;;;1.98;;
54679;SDS011;40578;53.178;5.846;2023-06-04T11:36:22;4.57;;;2.20;;
54679;SDS011;40578;53.178;5.846;2023-06-04T11:38:58;5.18;;;2.28;;
54679;SDS011;40578;53.178;5.846;2023-06-04T11:41:28;5.40;;;2.40;;
54679;SDS011;40578;53.178;5.846;2023-06-04T11:43:55;5.45;;;2.60;;
54679;SDS011;40578;53.178;5.846;2023-06-04T11:48:48;6.28;;;2.40;;
54679;SDS011;40578;53.178;5.846;2023-06-04T11:51:16;4.45;;;2.20;;
54679;SDS011;40578;53.178;5.846;2023-06-04T11:53:41;6.67;;;2.57;;
54679;SDS011;40578;53.178;5.846;2023-06-04T11:56:07;8.03;;;2.43;;
54679;SDS011;40578;53.178;5.846;2023-06-04T11:58:33;7.60;;;2.65;;
54679;SDS011;40578;53.178;5.846;2023-06-04T12:00:59;5.35;;;2.90;;
54679;SDS011;40578;53.178;5.846;2023-06-04T12:03:36;4.10;;;2.30;;
54679;SDS011;40578;53.178;5.846;2023-06-04T12:06:12;4.13;;;2.55;;
54679;SDS011;40578;53.178;5.846;2023-06-04T12:08:47;5.00;;;2.42;;
54679;SDS011;40578;53.178;5.846;2023-06-04T12:13:50;3.90;;;2.20;;
54679;SDS011;40578;53.178;5.846;2023-06-04T12:16:15;5.87;;;2.10;;
54679;SDS011;40578;53.178;5.846;2023-06-04T12:18:42;4.70;;;2.30;;
54679;SDS011;40578;53.178;5.846;2023-06-04T12:21:17;5.60;;;2.25;;
54679;SDS011;40578;53.178;5.846;2023-06-04T12:23:47;4.35;;;2.30;;
54679;SDS011;40578;53.178;5.846;2023-06-04T12:26:22;5.80;;;2.40;;
54679;SDS011;40578;53.178;5.846;2023-06-04T12:28:58;7.93;;;2.63;;
54679;SDS011;40578;53.178;5.846;2023-06-04T12:31:25;4.80;;;2.63;;
54679;SDS011;40578;53.178;5.846;2023-06-04T12:33:56;6.47;;;2.60;;
54679;SDS011;40578;53.178;5.846;2023-06-04T12:36:25;6.25;;;2.60;;
54679;SDS011;40578;53.178;5.846;2023-06-04T12:38:55;5.10;;;2.92;;
54679;SDS011;40578;53.178;5.846;2023-06-04T12:41:23;7.55;;;3.42;;
54679;SDS011;40578;53.178;5.846;2023-06-04T12:43:49;4.10;;;2.60;;
54679;SDS011;40578;53.178;5.846;2023-06-04T12:46:14;5.03;;;2.90;;
54679;SDS011;40578;53.178;5.846;2023-06-04T12:48:40;6.30;;;2.70;;
54679;SDS011;40578;53.178;5.846;2023-06-04T12:51:08;5.90;;;2.70;;
54679;SDS011;40578;53.178;5.846;2023-06-04T12:53:35;5.30;;;2.88;;
54679;SDS011;40578;53.178;5.846;2023-06-04T12:56:03;4.68;;;2.40;;
54679;SDS011;40578;53.178;5.846;2023-06-04T12:58:29;4.90;;;2.43;;
54679;SDS011;40578;53.178;5.846;2023-06-04T13:00:55;5.38;;;2.65;;
54679;SDS011;40578;53.178;5.846;2023-06-04T13:03:20;4.93;;;2.70;;
54679;SDS011;40578;53.178;5.846;2023-06-04T13:05:46;5.80;;;2.60;;
54679;SDS011;40578;53.178;5.846;2023-06-04T13:08:12;5.93;;;2.60;;
54679;SDS011;40578;53.178;5.846;2023-06-04T13:10:37;4.63;;;2.77;;
54679;SDS011;40578;53.178;5.846;2023-06-04T13:13:03;5.17;;;2.93;;
54679;SDS011;40578;53.178;5.846;2023-06-04T13:15:28;6.07;;;2.80;;
54679;SDS011;40578;53.178;5.846;2023-06-04T13:17:54;5.23;;;2.70;;
54679;SDS011;40578;53.178;5.846;2023-06-04T13:20:20;4.57;;;2.50;;
54679;SDS011;40578;53.178;5.846;2023-06-04T13:22:46;4.97;;;2.07;;
54679;SDS011;40578;53.178;5.846;2023-06-04T13:25:13;4.28;;;2.42;;
54679;SDS011;40578;53.178;5.846;2023-06-04T13:30:05;5.43;;;2.58;;
54679;SDS011;40578;53.178;5.846;2023-06-04T13:32:31;4.85;;;2.60;;
54679;SDS011;40578;53.178;5.846;2023-06-04T13:34:57;4.40;;;2.47;;
54679;SDS011;40578;53.178;5.846;2023-06-04T13:37:22;4.67;;;2.40;;
54679;SDS011;40578;53.178;5.846;2023-06-04T13:39:48;5.13;;;3.00;;
54679;SDS011;40578;53.178;5.846;2023-06-04T13:42:13;4.23;;;2.37;;
54679;SDS011;40578;53.178;5.846;2023-06-04T13:44:39;5.77;;;2.10;;
54679;SDS011;40578;53.178;5.846;2023-06-04T13:47:05;6.37;;;2.63;;
54679;SDS011;40578;53.178;5.846;2023-06-04T13:49:34;3.27;;;2.03;;
54679;SDS011;40578;53.178;5.846;2023-06-04T13:52:00;9.18;;;3.00;;
54679;SDS011;40578;53.178;5.846;2023-06-04T13:54:25;5.40;;;2.60;;
54679;SDS011;40578;53.178;5.846;2023-06-04T13:56:51;5.80;;;2.50;;
54679;SDS011;40578;53.178;5.846;2023-06-04T13:59:17;5.07;;;2.50;;
54679;SDS011;40578;53.178;5.846;2023-06-04T14:01:42;3.73;;;2.30;;
54679;SDS011;40578;53.178;5.846;2023-06-04T14:04:08;5.37;;;2.33;;
54679;SDS011;40578;53.178;5.846;2023-06-04T14:06:37;6.47;;;2.60;;
54679;SDS011;40578;53.178;5.846;2023-06-04T14:09:03;4.93;;;2.30;;
54679;SDS011;40578;53.178;5.846;2023-06-04T14:11:32;4.25;;;2.20;;
54679;SDS011;40578;53.178;5.846;2023-06-04T14:13:58;6.07;;;2.53;;
54679;SDS011;40578;53.178;5.846;2023-06-04T14:16:23;6.17;;;2.50;;
54679;SDS011;40578;53.178;5.846;2023-06-04T14:18:49;6.20;;;2.93;;
54679;SDS011;40578;53.178;5.846;2023-06-04T14:21:15;5.80;;;2.33;;
54679;SDS011;40578;53.178;5.846;2023-06-04T14:23:40;5.63;;;2.10;;
54679;SDS011;40578;53.178;5.846;2023-06-04T14:26:06;3.97;;;2.03;;
54679;SDS011;40578;53.178;5.846;2023-06-04T14:28:31;4.43;;;2.50;;
54679;SDS011;40578;53.178;5.846;2023-06-04T14:30:57;6.63;;;2.47;;
54679;SDS011;40578;53.178;5.846;2023-06-04T14:33:23;6.05;;;2.53;;
54679;SDS011;40578;53.178;5.846;2023-06-04T14:35:49;4.70;;;2.35;;
54679;SDS011;40578;53.178;5.846;2023-06-04T14:38:16;4.63;;;2.73;;
54679;SDS011;40578;53.178;5.846;2023-06-04T14:40:42;5.43;;;2.38;;
54679;SDS011;40578;53.178;5.846;2023-06-04T14:43:10;5.35;;;2.60;;
54679;SDS011;40578;53.178;5.846;2023-06-04T14:45:36;6.78;;;2.60;;
54679;SDS011;40578;53.178;5.846;2023-06-04T14:48:03;5.43;;;2.65;;
54679;SDS011;40578;53.178;5.846;2023-06-04T14:52:56;4.38;;;2.42;;
54679;SDS011;40578;53.178;5.846;2023-06-04T14:55:23;5.33;;;2.47;;
54679;SDS011;40578;53.178;5.846;2023-06-04T14:57:50;6.40;;;2.22;;
54679;SDS011;40578;53.178;5.846;2023-06-04T15:00:15;6.67;;;2.60;;
54679;SDS011;40578;53.178;5.846;2023-06-04T15:02:41;5.30;;;2.63;;
54679;SDS011;40578;53.178;5.846;2023-06-04T15:05:07;5.47;;;2.50;;
54679;SDS011;40578;53.178;5.846;2023-06-04T15:07:33;7.03;;;2.43;;
54679;SDS011;40578;53.178;5.846;2023-06-04T15:09:59;4.47;;;2.50;;
54679;SDS011;40578;53.178;5.846;2023-06-04T15:12:27;4.95;;;2.60;;
54679;SDS011;40578;53.178;5.846;2023-06-04T15:14:53;5.95;;;2.70;;
54679;SDS011;40578;53.178;5.846;2023-06-04T15:17:18;5.40;;;3.00;;